createdAt,value
2022-09-25T00:01:05.212Z,4.60
2022-09-25T00:03:32.709Z,4.45
2022-09-25T00:06:09.198Z,4.30
2022-09-25T00:08:36.777Z,5.32
2022-09-25T00:11:25.373Z,4.70
2022-09-25T00:13:52.897Z,4.50
2022-09-25T00:16:23.837Z,4.85
2022-09-25T00:19:10.345Z,4.90
2022-09-25T00:21:38.610Z,5.10
2022-09-25T00:24:08.833Z,5.00
2022-09-25T00:26:38.992Z,4.90
2022-09-25T00:29:07.970Z,4.82
2022-09-25T00:31:35.273Z,5.40
2022-09-25T00:34:04.973Z,4.72
2022-09-25T00:36:33.047Z,4.88
2022-09-25T00:39:00.401Z,4.65
2022-09-25T00:41:32.396Z,4.35
2022-09-25T00:44:01.794Z,5.00
2022-09-25T00:46:37.189Z,4.57
2022-09-25T00:49:20.575Z,4.13
2022-09-25T00:51:57.712Z,4.80
2022-09-25T00:54:39.039Z,5.57
2022-09-25T00:57:09.256Z,5.13
2022-09-25T00:59:45.184Z,5.22
2022-09-25T01:04:46.250Z,4.63
2022-09-25T01:07:14.366Z,4.32
2022-09-25T01:09:41.858Z,5.18
2022-09-25T01:12:09.570Z,4.72
2022-09-25T01:14:37.518Z,4.57
2022-09-25T01:17:30.442Z,4.55
2022-09-25T01:20:33.067Z,4.70
2022-09-25T01:23:30.477Z,4.60
2022-09-25T01:26:35.250Z,4.70
2022-09-25T01:29:10.588Z,4.30
2022-09-25T01:32:14.159Z,3.97
2022-09-25T01:35:08.271Z,4.25
2022-09-25T01:37:42.212Z,4.68
2022-09-25T01:40:22.112Z,4.68
2022-09-25T01:42:55.614Z,4.70
2022-09-25T01:45:33.274Z,4.50
2022-09-25T01:48:06.471Z,4.18
2022-09-25T01:50:45.036Z,4.82
2022-09-25T01:53:16.732Z,3.97
2022-09-25T01:55:48.885Z,3.88
2022-09-25T01:58:34.714Z,4.10
2022-09-25T02:01:07.706Z,3.97
2022-09-25T02:03:44.158Z,3.47
2022-09-25T02:06:17.064Z,3.90
2022-09-25T02:08:57.812Z,4.32
2022-09-25T02:11:31.443Z,3.67
2022-09-25T02:14:05.621Z,4.00
2022-09-25T02:16:38.454Z,3.15
2022-09-25T02:19:24.931Z,3.05
2022-09-25T02:22:04.596Z,3.53
2022-09-25T02:24:32.369Z,3.55
2022-09-25T02:27:00.027Z,3.53
2022-09-25T02:29:27.886Z,3.88
2022-09-25T02:32:19.569Z,3.72
2022-09-25T02:34:47.840Z,3.90
2022-09-25T02:37:17.278Z,4.00
2022-09-25T02:39:54.621Z,3.50
2022-09-25T02:42:35.142Z,3.80
2022-09-25T02:45:14.701Z,4.40
2022-09-25T02:47:52.596Z,4.30
2022-09-25T02:50:22.516Z,4.38
2022-09-25T02:53:22.120Z,4.45
2022-09-25T02:56:25.490Z,4.68
2022-09-25T02:58:59.746Z,4.25
2022-09-25T03:01:32.152Z,3.85
2022-09-25T03:04:01.123Z,4.00
2022-09-25T03:06:30.376Z,3.90
2022-09-25T03:09:01.063Z,4.00
2022-09-25T03:11:28.438Z,4.10
2022-09-25T03:14:00.601Z,3.97
2022-09-25T03:16:59.283Z,4.32
2022-09-25T03:19:29.024Z,3.75
2022-09-25T03:21:56.502Z,4.32
2022-09-25T03:24:23.746Z,4.28
2022-09-25T03:26:51.627Z,4.05
2022-09-25T03:29:18.880Z,3.78
2022-09-25T03:31:46.219Z,4.20
2022-09-25T03:34:15.031Z,4.47
2022-09-25T03:36:43.050Z,4.30
2022-09-25T03:39:15.028Z,4.28
2022-09-25T03:41:43.323Z,4.10
2022-09-25T03:44:10.663Z,4.32
2022-09-25T03:46:38.032Z,4.25
2022-09-25T03:49:05.697Z,4.05
2022-09-25T03:51:33.799Z,3.80
2022-09-25T03:54:01.324Z,4.20
2022-09-25T03:56:29.942Z,4.07
2022-09-25T03:58:57.777Z,3.72
2022-09-25T04:01:26.120Z,4.03
2022-09-25T04:03:53.731Z,4.18
2022-09-25T04:06:25.598Z,4.13
2022-09-25T04:08:54.044Z,4.10
2022-09-25T04:11:24.085Z,4.28
2022-09-25T04:13:52.127Z,4.45
2022-09-25T04:16:21.469Z,3.83
2022-09-25T04:18:49.972Z,4.50
2022-09-25T04:21:17.253Z,4.47
2022-09-25T04:24:05.001Z,4.40
2022-09-25T04:26:32.692Z,4.13
2022-09-25T04:29:01.537Z,4.38
2022-09-25T04:31:30.159Z,4.03
2022-09-25T04:33:57.387Z,3.90
2022-09-25T04:36:25.041Z,3.33
2022-09-25T04:38:52.912Z,4.10
2022-09-25T04:41:20.292Z,3.80
2022-09-25T04:43:47.785Z,4.22
2022-09-25T04:46:21.125Z,3.42
2022-09-25T04:48:49.534Z,3.92
2022-09-25T04:51:20.020Z,3.90
2022-09-25T04:53:48.570Z,3.67
2022-09-25T04:56:16.761Z,3.80
2022-09-25T04:58:46.779Z,3.92
2022-09-25T05:01:14.026Z,3.85
2022-09-25T05:03:41.232Z,3.58
2022-09-25T05:06:09.949Z,3.90
2022-09-25T05:08:37.033Z,3.97
2022-09-25T05:11:04.130Z,4.15
2022-09-25T05:13:31.392Z,3.53
2022-09-25T05:15:58.378Z,3.58
2022-09-25T05:18:25.984Z,3.97
2022-09-25T05:20:54.455Z,3.42
2022-09-25T05:23:24.066Z,3.63
2022-09-25T05:25:58.082Z,3.65
2022-09-25T05:28:25.254Z,3.42
2022-09-25T05:30:52.374Z,3.78
2022-09-25T05:33:19.742Z,3.58
2022-09-25T05:35:48.624Z,3.88
2022-09-25T05:38:16.158Z,3.78
2022-09-25T05:40:43.419Z,3.70
2022-09-25T05:43:12.161Z,4.20
2022-09-25T05:45:39.298Z,6.30
2022-09-25T05:48:08.553Z,4.70
2022-09-25T05:50:35.696Z,3.90
2022-09-25T05:53:04.680Z,3.90
2022-09-25T05:55:31.952Z,3.85
2022-09-25T05:58:05.227Z,3.70
2022-09-25T06:00:35.234Z,3.90
2022-09-25T06:03:02.510Z,4.13
2022-09-25T06:05:30.142Z,4.25
2022-09-25T06:07:57.205Z,4.50
2022-09-25T06:10:26.908Z,4.10
2022-09-25T06:13:02.666Z,3.97
2022-09-25T06:15:35.945Z,4.53
2022-09-25T06:18:04.187Z,4.25
2022-09-25T06:20:31.201Z,4.38
2022-09-25T06:22:59.428Z,3.90
2022-09-25T06:25:29.126Z,4.07
2022-09-25T06:27:57.835Z,4.15
2022-09-25T06:30:27.647Z,4.70
2022-09-25T06:32:59.600Z,4.20
2022-09-25T06:35:28.854Z,5.07
2022-09-25T06:38:00.984Z,4.50
2022-09-25T06:40:32.300Z,4.85
2022-09-25T06:43:01.537Z,6.88
2022-09-25T06:45:33.945Z,11.10
2022-09-25T06:48:05.839Z,10.55
2022-09-25T06:50:44.535Z,10.73
2022-09-25T06:53:12.889Z,9.60
2022-09-25T06:55:41.141Z,9.00
2022-09-25T06:58:14.719Z,8.02
2022-09-25T07:00:45.680Z,7.93
2022-09-25T07:03:31.376Z,7.28
2022-09-25T07:06:01.057Z,6.90
2022-09-25T07:08:28.201Z,6.88
2022-09-25T07:10:57.627Z,6.07
2022-09-25T07:13:29.217Z,6.50
2022-09-25T07:15:58.532Z,7.32
2022-09-25T07:18:28.552Z,7.95
2022-09-25T07:21:09.384Z,7.80
2022-09-25T07:23:37.906Z,6.78
2022-09-25T07:26:14.678Z,7.57
2022-09-25T07:28:43.390Z,8.00
2022-09-25T07:31:13.729Z,8.18
2022-09-25T07:33:41.042Z,8.40
2022-09-25T07:36:09.719Z,7.57
2022-09-25T07:38:37.169Z,8.52
2022-09-25T07:41:10.597Z,8.73
2022-09-25T07:43:38.845Z,8.10
2022-09-25T07:46:06.855Z,8.00
2022-09-25T07:48:34.106Z,8.55
2022-09-25T07:51:02.436Z,9.70
2022-09-25T07:53:29.804Z,10.23
2022-09-25T07:56:03.572Z,11.63
2022-09-25T07:58:35.670Z,11.63
2022-09-25T08:01:04.941Z,12.02
2022-09-25T08:03:33.071Z,11.05
2022-09-25T08:06:02.021Z,10.15
2022-09-25T08:08:29.925Z,10.10
2022-09-25T08:11:09.321Z,10.40
2022-09-25T08:13:39.571Z,9.45
2022-09-25T08:16:24.070Z,9.15
2022-09-25T08:18:53.272Z,10.05
2022-09-25T08:21:24.538Z,9.90
2022-09-25T08:23:54.846Z,9.48
2022-09-25T08:26:23.265Z,10.20
2022-09-25T08:28:51.111Z,10.30
2022-09-25T08:31:24.695Z,9.43
2022-09-25T08:33:51.903Z,9.88
2022-09-25T08:36:20.845Z,8.65
2022-09-25T08:38:49.570Z,9.07
2022-09-25T08:41:28.256Z,8.98
2022-09-25T08:44:05.322Z,9.38
2022-09-25T08:47:02.577Z,9.30
2022-09-25T08:49:36.981Z,9.30
2022-09-25T08:52:08.472Z,8.77
2022-09-25T08:54:36.662Z,9.55
2022-09-25T08:57:35.142Z,8.93
2022-09-25T09:00:06.713Z,9.25
2022-09-25T09:02:42.722Z,9.23
2022-09-25T09:05:22.076Z,8.15
2022-09-25T09:08:03.703Z,8.77
2022-09-25T09:10:42.712Z,8.13
2022-09-25T09:13:33.274Z,8.55
2022-09-25T09:16:07.274Z,8.25
2022-09-25T09:18:40.006Z,9.30
2022-09-25T09:21:19.220Z,8.50
2022-09-25T09:24:08.126Z,8.57
2022-09-25T09:27:18.289Z,8.93
2022-09-25T09:30:10.523Z,9.23
2022-09-25T09:33:05.610Z,8.75
2022-09-25T09:36:01.117Z,8.80
2022-09-25T09:38:51.177Z,8.32
2022-09-25T09:41:36.273Z,7.53
2022-09-25T09:44:23.391Z,7.65
2022-09-25T09:46:57.158Z,7.60
2022-09-25T09:50:10.070Z,7.28
2022-09-25T09:52:42.564Z,7.05
2022-09-25T09:55:41.968Z,7.60
2022-09-25T09:58:43.286Z,7.13
2022-09-25T10:01:36.555Z,7.60
2022-09-25T10:04:11.097Z,6.38
2022-09-25T10:06:41.634Z,6.88
2022-09-25T10:09:14.770Z,6.13
2022-09-25T10:11:44.188Z,6.65
2022-09-25T10:14:20.385Z,6.32
2022-09-25T10:16:53.177Z,6.80
2022-09-25T10:19:23.820Z,5.93
2022-09-25T10:22:28.353Z,7.32
2022-09-25T10:25:05.452Z,6.38
2022-09-25T10:27:36.939Z,7.30
2022-09-25T10:30:11.294Z,6.53
2022-09-25T10:33:00.000Z,6.50
2022-09-25T10:35:39.297Z,5.80
2022-09-25T10:38:35.597Z,5.50
2022-09-25T10:41:15.582Z,5.65
2022-09-25T10:44:01.158Z,5.90
2022-09-25T10:46:51.904Z,5.10
2022-09-25T10:49:44.378Z,4.82
2022-09-25T10:52:19.912Z,4.53
2022-09-25T10:54:48.149Z,4.93
2022-09-25T10:57:38.448Z,5.28
2022-09-25T11:00:25.105Z,4.90
2022-09-25T11:03:06.075Z,4.10
2022-09-25T11:05:37.820Z,4.35
2022-09-25T11:08:07.642Z,4.28
2022-09-25T11:10:37.655Z,3.80
2022-09-25T11:13:26.233Z,4.30
2022-09-25T11:15:58.965Z,4.00
2022-09-25T11:18:45.370Z,3.67
2022-09-25T11:21:33.693Z,3.70
2022-09-25T11:24:03.579Z,3.72
2022-09-25T11:26:47.225Z,3.25
2022-09-25T11:29:20.594Z,3.35
2022-09-25T11:31:58.691Z,3.30
2022-09-25T11:35:00.416Z,3.00
2022-09-25T11:38:02.270Z,2.90
2022-09-25T11:41:18.574Z,3.10
2022-09-25T11:43:58.066Z,3.00
2022-09-25T11:47:04.915Z,2.60
2022-09-25T11:52:16.578Z,2.58
2022-09-25T11:55:11.104Z,2.40
2022-09-25T11:57:49.716Z,2.47
2022-09-25T12:00:26.523Z,2.63
2022-09-25T12:02:56.637Z,2.42
2022-09-25T12:05:51.082Z,2.10
2022-09-25T12:08:37.076Z,2.47
2022-09-25T12:11:32.089Z,2.40
2022-09-25T12:14:14.179Z,2.50
2022-09-25T12:17:12.946Z,2.45
2022-09-25T12:20:11.586Z,2.50
2022-09-25T12:23:07.456Z,2.28
2022-09-25T12:25:45.710Z,2.33
2022-09-25T12:28:34.087Z,2.60
2022-09-25T12:31:10.689Z,2.40
2022-09-25T12:33:57.846Z,2.83
2022-09-25T12:36:36.710Z,2.50
2022-09-25T12:39:24.947Z,2.70
2022-09-25T12:42:18.886Z,2.70
2022-09-25T12:45:23.394Z,2.35
2022-09-25T12:48:05.753Z,2.45
2022-09-25T12:50:49.545Z,2.60
2022-09-25T12:53:20.088Z,2.60
2022-09-25T12:55:59.854Z,2.42
2022-09-25T12:58:57.597Z,2.60
2022-09-25T13:01:47.592Z,2.53
2022-09-25T13:04:20.591Z,2.55
2022-09-25T13:06:58.330Z,2.75
2022-09-25T13:09:25.521Z,2.67
2022-09-25T13:12:00.890Z,2.40
2022-09-25T13:16:54.967Z,2.60
2022-09-25T13:19:30.745Z,2.55
2022-09-25T13:22:22.290Z,2.63
2022-09-25T13:24:56.546Z,2.63
2022-09-25T13:27:25.344Z,2.15
2022-09-25T13:30:00.314Z,2.10
2022-09-25T13:32:34.578Z,2.45
2022-09-25T13:35:07.176Z,2.75
2022-09-25T13:37:38.005Z,3.00
2022-09-25T13:40:36.619Z,2.90
2022-09-25T13:43:27.987Z,3.00
2022-09-25T13:46:19.013Z,2.97
2022-09-25T13:48:46.398Z,3.10
2022-09-25T13:51:23.045Z,2.65
2022-09-25T13:54:04.740Z,2.90
2022-09-25T13:56:40.695Z,2.85
2022-09-25T13:59:15.159Z,3.08
2022-09-25T14:01:54.147Z,3.17
2022-09-25T14:04:36.205Z,3.03
2022-09-25T14:07:20.185Z,3.40
2022-09-25T14:09:55.168Z,3.20
2022-09-25T14:12:33.339Z,2.78
2022-09-25T14:15:28.970Z,2.70
2022-09-25T14:17:59.288Z,3.63
2022-09-25T14:20:34.697Z,3.03
2022-09-25T14:23:07.144Z,3.22
2022-09-25T14:25:38.417Z,3.00
2022-09-25T14:28:28.261Z,3.40
2022-09-25T14:31:00.183Z,3.20
2022-09-25T14:33:32.138Z,2.92
2022-09-25T14:36:24.836Z,3.67
2022-09-25T14:39:21.795Z,4.07
2022-09-25T14:42:18.822Z,4.30
2022-09-25T14:44:57.272Z,4.07
2022-09-25T14:47:30.884Z,3.80
2022-09-25T14:49:59.376Z,3.67
2022-09-25T14:52:32.209Z,3.70
2022-09-25T14:55:00.678Z,3.30
2022-09-25T14:57:32.848Z,3.80
2022-09-25T15:00:04.222Z,3.97
2022-09-25T15:02:37.578Z,4.10
2022-09-25T15:05:24.248Z,4.00
2022-09-25T15:07:51.459Z,4.35
2022-09-25T15:10:33.835Z,4.85
2022-09-25T15:13:13.111Z,4.20
2022-09-25T15:15:40.771Z,3.80
2022-09-25T15:18:14.055Z,3.70
2022-09-25T15:20:48.531Z,3.20
2022-09-25T15:23:19.185Z,2.80
2022-09-25T15:25:50.160Z,2.58
2022-09-25T15:28:21.010Z,7.15
2022-09-25T15:31:04.507Z,9.40
2022-09-25T15:33:34.468Z,4.30
2022-09-25T15:36:08.585Z,3.90
2022-09-25T15:38:37.727Z,3.20
2022-09-25T15:41:11.972Z,3.03
2022-09-25T15:43:39.055Z,3.03
2022-09-25T15:46:09.172Z,3.30
2022-09-25T15:48:42.324Z,3.00
2022-09-25T15:51:22.285Z,2.97
2022-09-25T15:53:57.966Z,3.30
2022-09-25T15:56:31.032Z,3.20
2022-09-25T15:59:19.291Z,3.08
2022-09-25T16:02:06.411Z,2.67
2022-09-25T16:04:52.222Z,2.25
2022-09-25T16:07:24.179Z,2.40
2022-09-25T16:09:57.367Z,2.60
2022-09-25T16:12:42.640Z,2.80
2022-09-25T16:15:27.328Z,3.90
2022-09-25T16:18:04.406Z,4.50
2022-09-25T16:20:42.848Z,4.47
2022-09-25T16:23:28.222Z,4.78
2022-09-25T16:25:56.183Z,4.25
2022-09-25T16:28:30.326Z,5.35
2022-09-25T16:31:08.036Z,4.50
2022-09-25T16:33:40.988Z,3.90
2022-09-25T16:36:20.406Z,3.85
2022-09-25T16:39:37.513Z,3.47
2022-09-25T16:42:27.923Z,3.95
2022-09-25T16:45:16.880Z,3.80
2022-09-25T16:47:49.294Z,4.78
2022-09-25T16:50:28.311Z,4.40
2022-09-25T16:52:55.945Z,4.38
2022-09-25T16:55:29.270Z,3.95
2022-09-25T16:57:59.272Z,5.30
2022-09-25T17:00:28.582Z,5.53
2022-09-25T17:02:56.513Z,6.10
2022-09-25T17:05:26.949Z,5.47
2022-09-25T17:07:56.944Z,17.27
2022-09-25T17:10:28.964Z,28.75
2022-09-25T17:12:59.092Z,20.05
2022-09-25T17:15:33.136Z,13.80
2022-09-25T17:18:02.281Z,13.90
2022-09-25T17:20:34.231Z,12.55
2022-09-25T17:23:02.085Z,12.50
2022-09-25T17:26:00.594Z,13.02
2022-09-25T17:28:28.496Z,11.63
2022-09-25T17:30:56.298Z,11.60
2022-09-25T17:33:23.731Z,11.38
2022-09-25T17:35:55.918Z,11.57
2022-09-25T17:38:23.009Z,11.20
2022-09-25T17:40:52.568Z,12.13
2022-09-25T17:43:19.983Z,12.05
2022-09-25T17:45:58.034Z,11.65
2022-09-25T17:48:30.770Z,10.50
2022-09-25T17:51:04.039Z,11.30
2022-09-25T17:53:33.812Z,10.88
2022-09-25T17:56:02.772Z,10.38
2022-09-25T17:58:31.114Z,9.95
2022-09-25T18:01:00.173Z,9.80
2022-09-25T18:03:28.532Z,9.30
2022-09-25T18:05:58.041Z,9.50
2022-09-25T18:08:25.180Z,9.70
2022-09-25T18:10:54.789Z,10.88
2022-09-25T18:13:22.520Z,11.27
2022-09-25T18:15:54.740Z,11.52
2022-09-25T18:18:23.061Z,8.35
2022-09-25T18:21:09.708Z,6.90
2022-09-25T18:23:38.845Z,7.82
2022-09-25T18:26:09.141Z,39.65
2022-09-25T18:28:36.144Z,27.13
2022-09-25T18:31:04.253Z,31.75
2022-09-25T18:33:31.492Z,32.47
2022-09-25T18:35:58.611Z,25.58
2022-09-25T18:38:25.847Z,26.95
2022-09-25T18:40:52.901Z,31.55
2022-09-25T18:43:21.322Z,22.45
2022-09-25T18:45:52.475Z,18.60
2022-09-25T18:48:19.746Z,19.27
2022-09-25T18:50:48.114Z,14.85
2022-09-25T18:53:15.700Z,12.68
2022-09-25T18:55:43.766Z,11.43
2022-09-25T18:58:11.989Z,10.50
2022-09-25T19:00:40.960Z,9.63
2022-09-25T19:03:08.889Z,9.45
2022-09-25T19:05:37.189Z,8.82
2022-09-25T19:08:05.303Z,7.50
2022-09-25T19:10:35.562Z,7.80
2022-09-25T19:13:04.321Z,8.75
2022-09-25T19:15:31.412Z,9.38
2022-09-25T19:17:59.827Z,10.07
2022-09-25T19:20:27.014Z,9.63
2022-09-25T19:22:54.099Z,9.38
2022-09-25T19:25:22.869Z,10.40
2022-09-25T19:27:50.150Z,9.20
2022-09-25T19:30:17.436Z,8.93
2022-09-25T19:32:45.188Z,8.10
2022-09-25T19:35:13.191Z,7.50
2022-09-25T19:37:42.345Z,8.82
2022-09-25T19:40:29.194Z,8.13
2022-09-25T19:42:58.695Z,9.55
2022-09-25T19:45:26.103Z,8.65
2022-09-25T19:47:53.555Z,10.45
2022-09-25T19:50:21.429Z,10.70
2022-09-25T19:52:51.030Z,11.13
2022-09-25T19:55:19.315Z,11.98
2022-09-25T19:57:47.241Z,11.35
2022-09-25T20:00:18.740Z,10.95
2022-09-25T20:02:48.707Z,12.88
2022-09-25T20:05:18.366Z,16.88
2022-09-25T20:07:46.545Z,19.45
2022-09-25T20:10:15.441Z,18.80
2022-09-25T20:12:42.855Z,16.90
2022-09-25T20:15:10.462Z,17.67
2022-09-25T20:17:37.385Z,15.52
2022-09-25T20:20:05.315Z,14.52
2022-09-25T20:22:32.526Z,15.18
2022-09-25T20:25:00.130Z,14.30
2022-09-25T20:27:27.900Z,12.93
2022-09-25T20:29:56.111Z,12.43
2022-09-25T20:32:23.737Z,10.50
2022-09-25T20:34:51.657Z,10.63
2022-09-25T20:37:18.719Z,9.13
2022-09-25T20:39:45.925Z,8.50
2022-09-25T20:42:13.449Z,9.27
2022-09-25T20:44:40.471Z,8.57
2022-09-25T20:47:08.426Z,8.73
2022-09-25T20:49:36.571Z,8.07
2022-09-25T20:52:04.716Z,8.00
2022-09-25T20:54:32.259Z,9.38
2022-09-25T20:56:59.349Z,9.23
2022-09-25T20:59:27.755Z,9.43
2022-09-25T21:01:55.015Z,9.15
2022-09-25T21:04:23.098Z,9.45
2022-09-25T21:06:50.179Z,9.35
2022-09-25T21:09:24.053Z,9.32
2022-09-25T21:11:52.684Z,8.02
2022-09-25T21:14:27.302Z,8.80
2022-09-25T21:16:59.102Z,8.48
2022-09-25T21:19:28.079Z,9.05
2022-09-25T21:21:55.296Z,8.18
2022-09-25T21:24:23.011Z,8.85
2022-09-25T21:26:50.946Z,8.23
2022-09-25T21:29:20.301Z,8.80
2022-09-25T21:31:50.361Z,8.50
2022-09-25T21:34:18.649Z,7.93
2022-09-25T21:36:46.837Z,7.65
2022-09-25T21:39:14.008Z,7.95
2022-09-25T21:41:41.185Z,9.02
2022-09-25T21:44:13.515Z,8.52
2022-09-25T21:46:41.250Z,7.40
2022-09-25T21:49:08.508Z,7.68
2022-09-25T21:51:39.299Z,7.85
2022-09-25T21:54:08.670Z,7.68
2022-09-25T21:56:36.122Z,7.65
2022-09-25T21:59:08.896Z,8.00
2022-09-25T22:01:38.816Z,7.65
2022-09-25T22:04:07.091Z,7.88
2022-09-25T22:06:39.802Z,8.10
2022-09-25T22:09:18.980Z,7.50
2022-09-25T22:11:47.968Z,7.55
2022-09-25T22:14:16.770Z,7.47
2022-09-25T22:16:47.119Z,8.40
2022-09-25T22:19:19.208Z,7.88
2022-09-25T22:21:49.258Z,7.80
2022-09-25T22:24:17.528Z,7.97
2022-09-25T22:26:47.035Z,7.47
2022-09-25T22:29:15.117Z,7.90
2022-09-25T22:31:43.669Z,8.00
2022-09-25T22:34:23.643Z,7.65
2022-09-25T22:36:57.901Z,7.20
2022-09-25T22:39:27.236Z,7.22
2022-09-25T22:41:55.581Z,7.85
2022-09-25T22:44:23.289Z,7.45
2022-09-25T22:46:50.993Z,7.43
2022-09-25T22:49:18.905Z,7.60
2022-09-25T22:51:46.078Z,7.28
2022-09-25T22:54:14.839Z,7.68
2022-09-25T22:56:43.156Z,7.70
2022-09-25T22:59:18.317Z,7.78
2022-09-25T23:01:52.386Z,7.38
2022-09-25T23:04:22.195Z,7.60
2022-09-25T23:06:50.195Z,7.93
2022-09-25T23:09:19.881Z,7.00
2022-09-25T23:11:47.107Z,7.45
2022-09-25T23:14:20.966Z,7.72
2022-09-25T23:16:50.783Z,7.63
2022-09-25T23:19:18.877Z,7.60
2022-09-25T23:21:46.304Z,6.72
2022-09-25T23:24:17.087Z,6.85
2022-09-25T23:26:46.048Z,6.93
2022-09-25T23:29:19.121Z,7.18
2022-09-25T23:31:47.911Z,6.43
2022-09-25T23:34:15.193Z,6.53
2022-09-25T23:36:42.429Z,6.80
2022-09-25T23:39:10.653Z,6.93
2022-09-25T23:41:39.830Z,7.43
2022-09-25T23:44:09.172Z,6.93
2022-09-25T23:46:39.460Z,6.80
2022-09-25T23:49:07.244Z,7.85
2022-09-25T23:51:34.201Z,6.82
2022-09-25T23:54:02.371Z,7.13
2022-09-25T23:56:32.384Z,7.50
2022-09-25T23:59:03.788Z,7.72
